الصفحة الرئيسية
METAR-TAF:

METAR-TAF

مطار :

Yuma, أريزونا, الولايات المتحدة

دائرة عرض: 32-37-25N, خط طول: 113-45-50W, ارتفاع: 64 متر

مراقبة الطقس الحالي

تاريخ ووقت الإصدار 12 دقيقة قبل الساعة 12:57UTC
ريح 6 عقدة من الشمال/الشمال الغربي
درجة الحرارة 11°درجة مئوية
الرطوبة 50%
ضغط 1023 hPa
الرؤية: 16.1 كم
سماء صافية

METAR: KNYL 131257Z AUTO 34006KT 10SM CLR 11/01 A3021 RMK AO2 SLP230 T01110006 $

زمن: 06:09 (13:09 UTC)

توقعات

التوقعات صالحة من13 الساعة 09 UTC إلى 14 الساعة 09 UTC
ريح 8 عقدة من الشمال
الرؤية: 1314 متر
غيوم قليلة على ارتفاع 22000 قدم

TAF: KNYL 1309/1409 35008KT 9999 FEW220 QNH3014INS AUTOMATED SENSOR METWATCH 1309 TIL 1314 T10/1313Z T20/1322Z

أرصاد الطقس والتوقعات من أكثر من 4000 مطار (تقارير الطقس للمطار METAR والتنبؤ بالطقس بالمطارTAF).

المحطات المتاحة هي النقط الصفراء والحمراء على الخريطة.

حرك المؤشر فوق النقطة لمعرفة اسم المحطة.

ثم انقر لمعرفة أرصاد وتوقعات الطقس.

لتغيير الخارطة: اضغط على الأزرار الخضراء مع رمز الصليب الأسود للتكبير. على الزر الأخضر مع شرطة للتصغير، أو على الأسهم الخضراء للخرائط المجاورة.


METAR-TAF: